createdAt,value
2018-03-20T00:00:29.150Z,15.55
2018-03-20T00:02:54.958Z,15.58
2018-03-20T00:05:20.874Z,15.63
2018-03-20T00:07:46.729Z,15.67
2018-03-20T00:10:12.534Z,15.71
2018-03-20T00:12:38.345Z,15.54
2018-03-20T00:15:04.155Z,15.61
2018-03-20T00:17:29.967Z,15.63
2018-03-20T00:19:55.777Z,15.68
2018-03-20T00:22:21.587Z,15.59
2018-03-20T00:24:47.478Z,15.66
2018-03-20T00:27:13.288Z,15.57
2018-03-20T00:29:39.094Z,15.61
2018-03-20T00:32:04.907Z,15.57
2018-03-20T00:34:30.746Z,15.61
2018-03-20T00:36:56.567Z,15.60
2018-03-20T00:39:22.377Z,15.54
2018-03-20T00:41:48.188Z,15.67
2018-03-20T00:44:14.967Z,15.51
2018-03-20T00:46:40.890Z,15.48
2018-03-20T00:49:06.692Z,15.52
2018-03-20T00:51:32.538Z,15.58
2018-03-20T00:53:58.395Z,15.65
2018-03-20T00:56:24.218Z,15.67
2018-03-20T00:58:50.021Z,15.47
2018-03-20T01:01:15.904Z,15.61
2018-03-20T01:03:41.718Z,15.57
2018-03-20T01:06:07.522Z,15.50
2018-03-20T01:08:33.329Z,15.58
2018-03-20T01:10:59.144Z,15.60
2018-03-20T01:13:24.947Z,15.50
2018-03-20T01:15:50.798Z,15.54
2018-03-20T01:18:16.608Z,15.60
2018-03-20T01:20:42.453Z,15.61
2018-03-20T01:23:08.263Z,15.67
2018-03-20T01:25:34.075Z,15.57
2018-03-20T01:27:59.882Z,15.45
2018-03-20T01:30:25.689Z,15.58
2018-03-20T01:32:51.498Z,15.56
2018-03-20T01:35:17.418Z,15.49
2018-03-20T01:37:43.264Z,15.51
2018-03-20T01:40:09.112Z,15.46
2018-03-20T01:42:34.922Z,15.48
2018-03-20T01:45:00.730Z,15.33
2018-03-20T01:47:26.538Z,15.45
2018-03-20T01:49:52.348Z,15.36
2018-03-20T01:52:24.286Z,15.55
2018-03-20T01:54:50.130Z,15.47
2018-03-20T01:57:15.934Z,15.59
2018-03-20T01:59:41.742Z,15.48
2018-03-20T02:02:07.555Z,15.54
2018-03-20T02:04:33.374Z,15.53
2018-03-20T02:06:59.174Z,15.46
2018-03-20T02:09:25.813Z,15.62
2018-03-20T02:11:51.615Z,15.55
2018-03-20T02:14:17.438Z,15.56
2018-03-20T02:16:43.307Z,15.43
2018-03-20T02:19:09.142Z,15.51
2018-03-20T02:21:34.946Z,15.62
2018-03-20T02:24:00.780Z,15.64
2018-03-20T02:26:26.582Z,15.68
2018-03-20T02:28:52.478Z,15.61
2018-03-20T02:31:18.298Z,15.51
2018-03-20T02:33:44.107Z,15.39
2018-03-20T02:36:09.915Z,15.38
2018-03-20T02:38:35.718Z,15.55
2018-03-20T02:41:01.527Z,15.59
2018-03-20T02:43:27.343Z,15.71
2018-03-20T02:45:53.150Z,15.56
2018-03-20T02:48:18.945Z,15.53
2018-03-20T02:50:44.795Z,15.58
2018-03-20T02:53:10.600Z,15.53
2018-03-20T02:55:36.406Z,15.70
2018-03-20T02:58:02.263Z,15.80
2018-03-20T03:00:28.067Z,15.61
2018-03-20T03:02:53.907Z,15.37
2018-03-20T03:05:20.642Z,15.43
2018-03-20T03:07:46.489Z,15.56
2018-03-20T03:10:12.286Z,15.69
2018-03-20T03:12:38.906Z,15.67
2018-03-20T03:15:04.707Z,15.66
2018-03-20T03:17:30.542Z,15.51
2018-03-20T03:19:57.291Z,15.51
2018-03-20T03:22:23.098Z,15.58
2018-03-20T03:24:48.893Z,15.75
2018-03-20T03:27:15.375Z,15.71
2018-03-20T03:29:41.226Z,15.55
2018-03-20T03:32:07.878Z,15.41
2018-03-20T03:34:33.674Z,15.56
2018-03-20T03:36:59.474Z,15.76
2018-03-20T03:39:25.278Z,15.63
2018-03-20T03:41:51.086Z,15.53
2018-03-20T03:44:16.894Z,15.34
2018-03-20T03:46:42.699Z,15.38
2018-03-20T03:49:08.508Z,15.38
2018-03-20T03:51:34.373Z,15.45
2018-03-20T03:54:00.178Z,15.43
2018-03-20T03:56:26.018Z,15.51
2018-03-20T03:58:52.103Z,15.50
2018-03-20T04:01:18.421Z,15.55
2018-03-20T04:03:44.227Z,15.50
2018-03-20T04:06:10.063Z,15.39
2018-03-20T04:08:35.863Z,15.45
2018-03-20T04:11:01.728Z,15.50
2018-03-20T04:13:28.374Z,15.59
2018-03-20T04:15:54.171Z,15.53
2018-03-20T04:18:19.977Z,15.48
2018-03-20T04:20:45.798Z,15.46
2018-03-20T04:23:11.646Z,15.63
2018-03-20T04:25:37.508Z,15.66
2018-03-20T04:28:03.334Z,15.51
2018-03-20T04:30:29.138Z,15.39
2018-03-20T04:32:55.782Z,15.34
2018-03-20T04:35:22.503Z,15.38
2018-03-20T04:37:48.343Z,15.56
2018-03-20T04:40:14.934Z,15.49
2018-03-20T04:42:41.733Z,15.55
2018-03-20T04:45:07.530Z,15.57
2018-03-20T04:47:34.221Z,15.43
2018-03-20T04:50:00.023Z,15.41
2018-03-20T04:52:25.845Z,15.60
2018-03-20T04:54:52.508Z,15.58
2018-03-20T04:57:18.307Z,15.59
2018-03-20T04:59:44.111Z,15.67
2018-03-20T05:02:09.974Z,15.45
2018-03-20T05:04:35.806Z,15.54
2018-03-20T05:07:02.571Z,15.61
2018-03-20T05:09:29.333Z,15.64
2018-03-20T05:11:56.060Z,15.65
2018-03-20T05:14:22.870Z,15.66
2018-03-20T05:16:48.690Z,15.58
2018-03-20T05:22:19.332Z,15.38
2018-03-20T05:24:46.115Z,15.51
2018-03-20T05:27:11.939Z,15.63
2018-03-20T05:29:38.813Z,15.42
2018-03-20T05:32:04.650Z,15.51
2018-03-20T05:34:31.375Z,15.52
2018-03-20T05:36:57.219Z,15.42
2018-03-20T05:39:23.134Z,15.63
2018-03-20T05:41:49.743Z,15.58
2018-03-20T05:44:16.525Z,15.56
2018-03-20T05:49:58.179Z,15.41
2018-03-20T05:52:24.147Z,15.34
2018-03-20T05:54:49.970Z,15.45
2018-03-20T05:57:16.678Z,15.40
2018-03-20T05:59:42.478Z,15.43
2018-03-20T06:02:08.292Z,15.57
2018-03-20T06:04:34.097Z,15.51
2018-03-20T06:07:00.759Z,15.53
2018-03-20T06:09:26.768Z,15.58
2018-03-20T06:11:52.627Z,15.55
2018-03-20T06:14:18.442Z,15.60
2018-03-20T06:16:45.134Z,15.50
2018-03-20T06:19:11.003Z,15.44
2018-03-20T06:21:36.849Z,15.39
2018-03-20T06:24:02.755Z,15.57
2018-03-20T06:26:28.573Z,15.66
2018-03-20T06:28:55.434Z,15.81
2018-03-20T06:31:22.174Z,15.71
2018-03-20T06:33:48.033Z,15.66
2018-03-20T06:36:13.855Z,15.70
2018-03-20T06:38:39.689Z,15.67
2018-03-20T06:41:05.599Z,15.70
2018-03-20T06:43:31.426Z,15.67
2018-03-20T06:45:58.251Z,15.70
2018-03-20T06:48:25.011Z,15.77
2018-03-20T06:50:58.918Z,15.75
2018-03-20T06:53:25.626Z,15.56
2018-03-20T06:55:51.502Z,15.53
2018-03-20T06:58:17.307Z,15.69
2018-03-20T07:00:43.128Z,15.63
2018-03-20T07:03:10.078Z,15.75
2018-03-20T07:05:36.951Z,15.69
2018-03-20T07:08:03.606Z,15.66
2018-03-20T07:10:30.204Z,15.77
2018-03-20T07:12:56.870Z,15.73
2018-03-20T07:15:22.679Z,15.77
2018-03-20T07:17:48.503Z,15.77
2018-03-20T07:20:14.402Z,15.74
2018-03-20T07:22:40.216Z,15.72
2018-03-20T07:25:06.078Z,15.58
2018-03-20T07:27:32.757Z,15.72
2018-03-20T07:29:59.411Z,15.82
2018-03-20T07:32:25.247Z,15.85
2018-03-20T07:34:51.082Z,15.74
2018-03-20T07:40:02.900Z,15.57
2018-03-20T07:42:29.554Z,15.79
2018-03-20T07:44:56.328Z,15.83
2018-03-20T07:47:23.091Z,16.01
2018-03-20T07:49:49.736Z,15.87
2018-03-20T07:52:15.607Z,15.88
2018-03-20T07:54:42.275Z,15.97
2018-03-20T07:57:09.010Z,15.86
2018-03-20T07:59:35.702Z,15.86
2018-03-20T08:02:01.536Z,16.06
2018-03-20T08:04:27.364Z,16.11
2018-03-20T08:06:53.235Z,15.88
2018-03-20T08:09:19.057Z,15.91
2018-03-20T08:11:44.896Z,15.87
2018-03-20T08:14:10.724Z,15.93
2018-03-20T08:16:37.455Z,15.98
2018-03-20T08:19:03.290Z,15.97
2018-03-20T08:21:29.392Z,15.88
2018-03-20T08:23:55.251Z,15.88
2018-03-20T08:26:21.103Z,15.85
2018-03-20T08:28:46.943Z,15.80
2018-03-20T08:31:12.776Z,15.82
2018-03-20T08:33:38.595Z,15.84
2018-03-20T08:36:04.424Z,15.91
2018-03-20T08:38:30.302Z,15.89
2018-03-20T08:40:56.118Z,15.93
2018-03-20T08:43:21.942Z,15.79
2018-03-20T08:45:48.646Z,15.75
2018-03-20T08:48:14.462Z,15.90
2018-03-20T08:50:40.284Z,15.81
2018-03-20T08:53:06.140Z,15.81
2018-03-20T08:55:31.970Z,15.92
2018-03-20T08:57:58.670Z,16.01
2018-03-20T09:00:24.530Z,16.00
2018-03-20T09:02:50.370Z,15.97
2018-03-20T09:05:16.227Z,16.01
2018-03-20T09:07:42.039Z,16.04
2018-03-20T09:10:07.873Z,16.06
2018-03-20T09:12:34.506Z,16.17
2018-03-20T09:15:01.326Z,16.05
2018-03-20T09:17:27.155Z,16.08
2018-03-20T09:19:52.974Z,16.08
2018-03-20T09:22:18.814Z,15.99
2018-03-20T09:24:44.642Z,16.13
2018-03-20T09:27:11.501Z,16.09
2018-03-20T09:29:38.287Z,16.02
2018-03-20T09:32:04.967Z,16.02
2018-03-20T09:34:30.783Z,16.10
2018-03-20T09:36:56.644Z,16.07
2018-03-20T09:39:22.484Z,16.17
2018-03-20T09:41:49.201Z,16.03
2018-03-20T09:44:15.054Z,16.00
2018-03-20T09:46:40.880Z,16.05
2018-03-20T09:49:06.801Z,15.97
2018-03-20T09:51:32.596Z,16.30
2018-03-20T09:53:58.426Z,16.39
2018-03-20T09:56:24.243Z,16.29
2018-03-20T09:58:50.061Z,16.15
2018-03-20T10:01:15.926Z,16.16
2018-03-20T10:03:41.792Z,16.16
2018-03-20T10:06:07.667Z,16.07
2018-03-20T10:08:33.471Z,16.33
2018-03-20T10:10:59.295Z,16.10
2018-03-20T10:13:25.153Z,16.28
2018-03-20T10:15:50.990Z,16.17
2018-03-20T10:18:16.846Z,16.36
2018-03-20T10:20:42.674Z,16.35
2018-03-20T10:23:08.495Z,16.42
2018-03-20T10:25:35.349Z,16.33
2018-03-20T10:28:01.160Z,16.34
2018-03-20T10:30:26.998Z,16.32
2018-03-20T10:32:52.813Z,16.33
2018-03-20T10:35:18.641Z,16.49
2018-03-20T10:37:44.467Z,16.21
2018-03-20T10:40:10.330Z,16.32
2018-03-20T10:42:36.187Z,16.41
2018-03-20T10:45:02.860Z,16.40
2018-03-20T10:47:28.677Z,16.30
2018-03-20T10:49:55.434Z,16.06
2018-03-20T10:52:22.206Z,16.14
2018-03-20T10:54:48.081Z,16.29
2018-03-20T10:57:14.735Z,16.39
2018-03-20T10:59:41.544Z,16.45
2018-03-20T11:02:14.406Z,16.57
2018-03-20T11:04:40.237Z,16.41
2018-03-20T11:07:06.917Z,16.55
2018-03-20T11:09:40.766Z,16.61
2018-03-20T11:12:07.574Z,16.44
2018-03-20T11:14:33.392Z,16.54
2018-03-20T11:16:59.260Z,16.51
2018-03-20T11:19:25.078Z,16.52
2018-03-20T11:21:51.927Z,16.48
2018-03-20T11:24:17.718Z,16.41
2018-03-20T11:26:44.399Z,16.44
2018-03-20T11:29:10.230Z,16.40
2018-03-20T11:31:36.066Z,16.46
2018-03-20T11:34:02.859Z,16.45
2018-03-20T11:36:28.681Z,16.38
2018-03-20T11:38:55.350Z,16.28
2018-03-20T11:41:21.174Z,16.36
2018-03-20T11:43:47.002Z,16.52
2018-03-20T11:46:12.851Z,16.50
2018-03-20T11:48:39.497Z,16.51
2018-03-20T11:51:05.350Z,16.30
2018-03-20T11:53:31.172Z,16.30
2018-03-20T11:55:57.844Z,16.14
2018-03-20T11:58:23.653Z,16.27
2018-03-20T12:00:49.485Z,16.37
2018-03-20T12:03:15.295Z,16.27
2018-03-20T12:05:41.962Z,16.19
2018-03-20T12:08:13.961Z,16.17
2018-03-20T12:10:40.724Z,16.20
2018-03-20T12:13:06.546Z,16.08
2018-03-20T12:15:32.367Z,16.17
2018-03-20T12:17:58.191Z,16.28
2018-03-20T12:20:24.837Z,16.13
2018-03-20T12:22:50.692Z,16.38
2018-03-20T12:25:17.382Z,16.08
2018-03-20T12:27:43.203Z,16.16
2018-03-20T12:30:10.036Z,16.14
2018-03-20T12:32:36.635Z,16.37
2018-03-20T12:35:02.471Z,16.46
2018-03-20T12:37:28.315Z,16.28
2018-03-20T12:39:55.151Z,16.30
2018-03-20T12:42:20.966Z,16.36
2018-03-20T12:44:46.784Z,16.29
2018-03-20T12:47:12.609Z,16.16
2018-03-20T12:49:38.425Z,16.12
2018-03-20T12:52:05.257Z,16.22
2018-03-20T12:54:31.119Z,16.29
2018-03-20T12:56:57.780Z,16.23
2018-03-20T12:59:24.556Z,16.35
2018-03-20T13:01:51.350Z,16.42
2018-03-20T13:04:18.086Z,16.17
2018-03-20T13:06:44.786Z,16.20
2018-03-20T13:09:11.631Z,16.15
2018-03-20T13:11:38.457Z,16.18
2018-03-20T13:14:04.283Z,16.18
2018-03-20T13:16:30.106Z,16.24
2018-03-20T13:18:55.916Z,16.26
2018-03-20T13:21:21.733Z,16.09
2018-03-20T13:23:47.558Z,16.16
2018-03-20T13:26:13.394Z,16.18
2018-03-20T13:28:39.257Z,16.22
2018-03-20T13:31:05.099Z,16.30
2018-03-20T13:33:30.920Z,15.98
2018-03-20T13:35:57.638Z,16.18
2018-03-20T13:38:23.489Z,16.10
2018-03-20T13:40:49.319Z,16.19
2018-03-20T13:43:16.096Z,16.18
2018-03-20T13:45:41.955Z,16.30
2018-03-20T13:48:08.784Z,16.25
2018-03-20T13:50:34.643Z,16.22
2018-03-20T13:53:00.479Z,16.19
2018-03-20T13:55:26.311Z,16.25
2018-03-20T13:57:52.130Z,16.21
2018-03-20T14:00:17.962Z,16.39
2018-03-20T14:02:43.780Z,16.26
2018-03-20T14:05:09.617Z,16.35
2018-03-20T14:07:35.478Z,16.25
2018-03-20T14:10:01.349Z,16.28
2018-03-20T14:12:27.175Z,16.30
2018-03-20T14:14:53.008Z,16.41
2018-03-20T14:17:18.836Z,16.35
2018-03-20T14:19:44.676Z,16.53
2018-03-20T14:22:10.494Z,16.40
2018-03-20T14:24:36.318Z,16.35
2018-03-20T14:27:02.143Z,16.31
2018-03-20T14:29:28.005Z,16.35
2018-03-20T14:31:54.855Z,16.42
2018-03-20T14:34:20.681Z,16.21
2018-03-20T14:36:46.538Z,16.21
2018-03-20T14:39:13.354Z,16.19
2018-03-20T14:41:39.976Z,16.24
2018-03-20T14:44:05.843Z,16.17
2018-03-20T14:46:31.662Z,16.26
2018-03-20T14:48:57.529Z,16.34
2018-03-20T14:51:23.367Z,16.31
2018-03-20T14:53:49.220Z,16.40
2018-03-20T14:56:15.960Z,16.54
2018-03-20T14:58:41.845Z,16.38
2018-03-20T15:01:07.678Z,16.37
2018-03-20T15:03:34.467Z,16.23
2018-03-20T15:06:00.285Z,16.31
2018-03-20T15:08:26.099Z,16.39
2018-03-20T15:10:51.970Z,16.53
2018-03-20T15:13:18.615Z,16.45
2018-03-20T15:15:44.446Z,16.32
2018-03-20T15:18:11.268Z,16.23
2018-03-20T15:20:37.090Z,16.40
2018-03-20T15:23:02.909Z,16.39
2018-03-20T15:25:28.731Z,16.42
2018-03-20T15:27:55.412Z,16.39
2018-03-20T15:30:21.285Z,16.38
2018-03-20T15:32:48.043Z,16.22
2018-03-20T15:35:14.873Z,16.36
2018-03-20T15:37:40.738Z,16.26
2018-03-20T15:40:07.540Z,16.39
2018-03-20T15:42:34.251Z,16.29
2018-03-20T15:45:00.072Z,16.21
2018-03-20T15:47:25.891Z,16.24
2018-03-20T15:49:52.542Z,16.25
2018-03-20T15:52:19.318Z,16.21
2018-03-20T15:54:45.185Z,16.22
2018-03-20T15:57:11.916Z,16.28
2018-03-20T15:59:38.736Z,16.25
2018-03-20T16:02:04.561Z,16.24
2018-03-20T16:04:31.424Z,16.31
2018-03-20T16:06:58.112Z,16.34
2018-03-20T16:09:23.935Z,16.35
2018-03-20T16:11:49.754Z,16.31
2018-03-20T16:14:16.471Z,16.53
2018-03-20T16:16:42.306Z,16.47
2018-03-20T16:19:08.126Z,16.30
2018-03-20T16:21:34.777Z,16.50
2018-03-20T16:24:01.401Z,16.51
2018-03-20T16:26:27.244Z,16.31
2018-03-20T16:28:53.078Z,16.32
2018-03-20T16:31:18.919Z,16.32
2018-03-20T16:33:44.734Z,16.27
2018-03-20T16:36:10.567Z,16.21
2018-03-20T16:38:36.386Z,16.33
2018-03-20T16:41:02.202Z,16.15
2018-03-20T16:43:28.926Z,16.18
2018-03-20T16:45:54.823Z,16.45
2018-03-20T16:48:20.635Z,16.41
2018-03-20T16:50:47.371Z,16.52
2018-03-20T16:53:13.179Z,16.55
2018-03-20T16:55:38.997Z,16.62
2018-03-20T16:58:04.812Z,16.49
2018-03-20T17:00:30.645Z,16.29
2018-03-20T17:02:56.459Z,16.46
2018-03-20T17:05:22.270Z,16.44
2018-03-20T17:07:48.100Z,16.52
2018-03-20T17:10:13.919Z,16.35
2018-03-20T17:12:39.746Z,16.43
2018-03-20T17:15:05.623Z,16.32
2018-03-20T17:17:31.426Z,16.27
2018-03-20T17:19:57.259Z,16.41
2018-03-20T17:22:23.081Z,16.44
2018-03-20T17:24:49.072Z,16.30
2018-03-20T17:27:14.946Z,16.42
2018-03-20T17:29:40.768Z,16.32
2018-03-20T17:32:06.605Z,16.28
2018-03-20T17:34:32.482Z,16.47
2018-03-20T17:36:58.285Z,16.27
2018-03-20T17:39:24.115Z,16.42
2018-03-20T17:41:50.887Z,16.58
2018-03-20T17:44:16.715Z,16.41
2018-03-20T17:46:42.542Z,16.36
2018-03-20T17:49:08.376Z,16.30
2018-03-20T17:51:34.203Z,16.27
2018-03-20T17:54:00.080Z,16.24
2018-03-20T17:56:25.943Z,16.40
2018-03-20T17:58:52.668Z,16.34
2018-03-20T18:01:19.186Z,16.27
2018-03-20T18:03:45.612Z,16.19
2018-03-20T18:06:11.433Z,16.28
2018-03-20T18:08:37.266Z,16.30
2018-03-20T18:11:03.123Z,16.35
2018-03-20T18:13:28.961Z,16.29
2018-03-20T18:15:54.814Z,16.17
2018-03-20T18:18:20.713Z,16.22
2018-03-20T18:20:46.534Z,16.07
2018-03-20T18:23:12.346Z,16.24
2018-03-20T18:25:38.238Z,16.21
2018-03-20T18:28:04.166Z,16.26
2018-03-20T18:30:29.947Z,16.38
2018-03-20T18:32:55.798Z,16.20
2018-03-20T18:35:22.498Z,16.31
2018-03-20T18:37:49.243Z,16.45
2018-03-20T18:40:16.072Z,16.21
2018-03-20T18:42:41.920Z,16.18
2018-03-20T18:45:07.776Z,16.27
2018-03-20T18:47:33.600Z,16.38
2018-03-20T18:50:00.420Z,16.42
2018-03-20T18:52:26.250Z,16.28
2018-03-20T18:54:52.108Z,16.28
2018-03-20T18:57:17.944Z,16.23
2018-03-20T18:59:43.771Z,16.21
2018-03-20T19:02:09.604Z,16.23
2018-03-20T19:04:35.507Z,16.16
2018-03-20T19:07:01.331Z,16.30
2018-03-20T19:09:27.203Z,16.31
2018-03-20T19:11:53.877Z,16.27
2018-03-20T19:14:19.706Z,16.14
2018-03-20T19:16:45.538Z,16.18
2018-03-20T19:19:11.400Z,16.21
2018-03-20T19:21:37.222Z,16.26
2018-03-20T19:24:03.078Z,16.31
2018-03-20T19:26:29.901Z,16.23
2018-03-20T19:28:56.528Z,16.25
2018-03-20T19:31:23.239Z,16.05
2018-03-20T19:33:49.070Z,16.16
2018-03-20T19:36:14.899Z,16.17
2018-03-20T19:38:40.754Z,16.27
2018-03-20T19:41:06.582Z,16.26
2018-03-20T19:43:32.466Z,16.10
2018-03-20T19:45:59.207Z,16.10
2018-03-20T19:48:25.902Z,16.06
2018-03-20T19:50:51.750Z,16.11
2018-03-20T19:53:17.613Z,16.17
2018-03-20T19:55:43.478Z,16.16
2018-03-20T19:58:10.290Z,16.17
2018-03-20T20:00:37.936Z,16.20
2018-03-20T20:03:04.544Z,16.17
2018-03-20T20:05:31.307Z,16.11
2018-03-20T20:07:57.163Z,16.11
2018-03-20T20:10:22.991Z,16.22
2018-03-20T20:12:48.977Z,16.22
2018-03-20T20:15:15.742Z,16.20
2018-03-20T20:17:41.586Z,16.14
2018-03-20T20:20:08.426Z,16.11
2018-03-20T20:22:56.527Z,16.15
2018-03-20T20:25:22.488Z,16.10
2018-03-20T20:27:48.409Z,16.18
2018-03-20T20:30:14.366Z,16.15
2018-03-20T20:32:40.251Z,16.15
2018-03-20T20:35:06.211Z,16.13
2018-03-20T20:37:32.124Z,15.94
2018-03-20T20:39:57.944Z,16.07
2018-03-20T20:42:23.766Z,16.07
2018-03-20T20:44:49.582Z,16.05
2018-03-20T20:47:16.376Z,16.02
2018-03-20T20:49:42.200Z,16.01
2018-03-20T20:52:08.078Z,16.04
2018-03-20T20:54:33.947Z,16.01
2018-03-20T20:56:59.767Z,16.14
2018-03-20T20:59:25.590Z,16.07
2018-03-20T21:01:51.444Z,16.08
2018-03-20T21:04:17.291Z,16.01
2018-03-20T21:06:43.160Z,15.96
2018-03-20T21:09:09.079Z,16.00
2018-03-20T21:11:35.009Z,16.01
2018-03-20T21:14:00.911Z,15.98
2018-03-20T21:16:26.839Z,16.02
2018-03-20T21:18:52.770Z,16.04
2018-03-20T21:21:19.036Z,16.02
2018-03-20T21:23:44.896Z,16.03
2018-03-20T21:26:10.712Z,16.08
2018-03-20T21:28:36.559Z,16.07
2018-03-20T21:31:02.482Z,16.08
2018-03-20T21:33:28.295Z,16.06
2018-03-20T21:35:54.116Z,16.01
2018-03-20T21:38:19.972Z,15.96
2018-03-20T21:40:45.791Z,16.06
2018-03-20T21:43:12.558Z,16.14
2018-03-20T21:45:39.306Z,16.07
2018-03-20T21:48:05.120Z,16.13
2018-03-20T21:50:30.941Z,16.03
2018-03-20T21:52:56.784Z,16.13
2018-03-20T21:55:22.602Z,16.06
2018-03-20T21:57:51.348Z,16.08
2018-03-20T22:00:20.573Z,16.06
2018-03-20T22:02:49.844Z,16.07
2018-03-20T22:05:23.729Z,15.98
2018-03-20T22:07:56.424Z,15.93
2018-03-20T22:10:24.899Z,15.96
2018-03-20T22:12:51.775Z,16.05
2018-03-20T22:15:31.123Z,16.08
2018-03-20T22:18:03.418Z,15.96
2018-03-20T22:20:40.580Z,16.01
2018-03-20T22:23:10.134Z,16.04
2018-03-20T22:25:38.845Z,16.04
2018-03-20T22:28:07.297Z,16.05
2018-03-20T22:30:34.494Z,16.00
2018-03-20T22:33:02.920Z,16.05
2018-03-20T22:35:32.095Z,16.01
2018-03-20T22:37:58.993Z,15.91
2018-03-20T22:40:24.825Z,16.00
2018-03-20T22:42:50.648Z,16.07
2018-03-20T22:45:16.509Z,15.96
2018-03-20T22:47:42.315Z,16.01
2018-03-20T22:50:08.136Z,15.97
2018-03-20T22:52:33.990Z,15.87
2018-03-20T22:54:59.847Z,15.93
2018-03-20T22:57:25.713Z,15.97
2018-03-20T22:59:52.431Z,16.00
2018-03-20T23:02:19.287Z,15.95
2018-03-20T23:04:46.119Z,16.01
2018-03-20T23:07:11.950Z,15.90
2018-03-20T23:09:37.802Z,15.84
2018-03-20T23:12:03.632Z,15.93
2018-03-20T23:14:30.499Z,15.98
2018-03-20T23:16:56.319Z,15.89
2018-03-20T23:19:22.295Z,15.95
2018-03-20T23:21:48.131Z,15.98
2018-03-20T23:24:14.826Z,15.78
2018-03-20T23:26:41.611Z,15.93
2018-03-20T23:29:08.397Z,15.88
2018-03-20T23:31:35.263Z,15.93
2018-03-20T23:34:02.103Z,15.92
2018-03-20T23:36:27.958Z,15.92
2018-03-20T23:38:54.635Z,15.87
2018-03-20T23:41:20.489Z,15.95
2018-03-20T23:43:46.298Z,15.93
2018-03-20T23:46:13.019Z,15.89
2018-03-20T23:48:39.700Z,16.18
2018-03-20T23:51:06.554Z,16.02
2018-03-20T23:53:32.371Z,15.89
2018-03-20T23:55:58.263Z,15.89
2018-03-20T23:58:25.038Z,15.97
